sensor_id;sensor_type;location;lat;lon;timestamp;noise_LAeq;noise_LA_min;noise_LA_max;noise_LA01;noise_LA95
66463;Laerm;56827;52.178;4.500;2023-02-01T00:00:09;39.52;37.73;41.75;;
66463;Laerm;56827;52.178;4.500;2023-02-01T00:00:20;39.92;37.76;42.11;;
66463;Laerm;56827;52.178;4.500;2023-02-01T00:00:30;37.92;35.50;40.55;;
66463;Laerm;56827;52.178;4.500;2023-02-01T00:00:40;36.89;34.94;39.53;;
66463;Laerm;56827;52.178;4.500;2023-02-01T00:00:50;42.39;37.68;45.75;;
66463;Laerm;56827;52.178;4.500;2023-02-01T00:01:05;44.92;40.44;48.54;;
66463;Laerm;56827;52.178;4.500;2023-02-01T00:01:15;41.30;36.06;45.05;;
66463;Laerm;56827;52.178;4.500;2023-02-01T00:01:25;49.33;36.48;54.43;;
66463;Laerm;56827;52.178;4.500;2023-02-01T00:01:35;48.06;44.28;51.68;;
66463;Laerm;56827;52.178;4.500;2023-02-01T00:01:46;41.47;37.02;45.11;;
66463;Laerm;56827;52.178;4.500;2023-02-01T00:01:56;39.09;36.45;43.62;;
66463;Laerm;56827;52.178;4.500;2023-02-01T00:02:06;46.90;40.93;51.91;;
66463;Laerm;56827;52.178;4.500;2023-02-01T00:02:17;45.29;42.63;47.76;;
66463;Laerm;56827;52.178;4.500;2023-02-01T00:02:27;43.97;40.50;47.03;;
66463;Laerm;56827;52.178;4.500;2023-02-01T00:02:37;43.76;41.13;46.98;;
66463;Laerm;56827;52.178;4.500;2023-02-01T00:02:50;38.50;35.44;42.17;;
66463;Laerm;56827;52.178;4.500;2023-02-01T00:03:00;37.10;34.56;40.44;;
66463;Laerm;56827;52.178;4.500;2023-02-01T00:03:11;36.40;33.61;39.23;;
66463;Laerm;56827;52.178;4.500;2023-02-01T00:03:22;37.13;34.60;39.25;;
66463;Laerm;56827;52.178;4.500;2023-02-01T00:03:33;38.60;35.80;42.55;;
66463;Laerm;56827;52.178;4.500;2023-02-01T00:03:43;46.75;42.40;50.22;;
66463;Laerm;56827;52.178;4.500;2023-02-01T00:03:53;47.51;38.97;52.41;;
66463;Laerm;56827;52.178;4.500;2023-02-01T00:04:04;39.62;37.42;42.84;;
66463;Laerm;56827;52.178;4.500;2023-02-01T00:04:14;37.18;33.81;40.23;;
66463;Laerm;56827;52.178;4.500;2023-02-01T00:04:24;35.79;33.75;37.68;;
66463;Laerm;56827;52.178;4.500;2023-02-01T00:04:35;37.20;34.14;40.39;;
66463;Laerm;56827;52.178;4.500;2023-02-01T00:04:45;39.89;35.72;44.95;;
66463;Laerm;56827;52.178;4.500;2023-02-01T00:04:55;39.92;36.74;44.36;;
66463;Laerm;56827;52.178;4.500;2023-02-01T00:05:09;40.07;38.08;41.90;;
66463;Laerm;56827;52.178;4.500;2023-02-01T00:05:19;41.34;38.44;43.54;;
66463;Laerm;56827;52.178;4.500;2023-02-01T00:05:29;45.85;42.61;48.54;;
66463;Laerm;56827;52.178;4.500;2023-02-01T00:05:40;46.12;42.00;49.69;;
66463;Laerm;56827;52.178;4.500;2023-02-01T00:05:57;43.43;39.81;46.50;;
66463;Laerm;56827;52.178;4.500;2023-02-01T00:06:07;42.82;38.54;47.60;;
66463;Laerm;56827;52.178;4.500;2023-02-01T00:06:17;42.53;39.16;45.26;;
66463;Laerm;56827;52.178;4.500;2023-02-01T00:06:27;39.71;36.77;43.37;;
66463;Laerm;56827;52.178;4.500;2023-02-01T00:06:38;47.21;42.59;50.74;;
66463;Laerm;56827;52.178;4.500;2023-02-01T00:06:48;43.41;39.81;50.70;;
66463;Laerm;56827;52.178;4.500;2023-02-01T00:06:58;44.90;40.82;52.81;;
66463;Laerm;56827;52.178;4.500;2023-02-01T00:07:09;41.54;36.24;45.83;;
66463;Laerm;56827;52.178;4.500;2023-02-01T00:07:19;35.93;33.94;37.79;;
66463;Laerm;56827;52.178;4.500;2023-02-01T00:07:29;35.25;33.36;37.27;;
66463;Laerm;56827;52.178;4.500;2023-02-01T00:07:39;35.72;34.19;37.67;;
66463;Laerm;56827;52.178;4.500;2023-02-01T00:07:50;38.58;34.65;41.93;;
66463;Laerm;56827;52.178;4.500;2023-02-01T00:08:00;37.99;35.12;43.58;;
66463;Laerm;56827;52.178;4.500;2023-02-01T00:08:10;36.54;34.73;40.79;;
66463;Laerm;56827;52.178;4.500;2023-02-01T00:08:20;37.20;35.15;38.80;;
66463;Laerm;56827;52.178;4.500;2023-02-01T00:08:30;37.88;35.30;40.09;;
66463;Laerm;56827;52.178;4.500;2023-02-01T00:08:41;37.50;34.88;40.28;;
66463;Laerm;56827;52.178;4.500;2023-02-01T00:08:54;49.31;37.37;53.51;;
66463;Laerm;56827;52.178;4.500;2023-02-01T00:09:04;46.63;41.27;51.33;;
66463;Laerm;56827;52.178;4.500;2023-02-01T00:09:14;43.68;40.86;50.95;;
66463;Laerm;56827;52.178;4.500;2023-02-01T00:09:25;47.04;41.77;51.68;;
66463;Laerm;56827;52.178;4.500;2023-02-01T00:09:35;41.19;38.66;44.26;;
66463;Laerm;56827;52.178;4.500;2023-02-01T00:09:45;44.27;38.16;49.75;;
66463;Laerm;56827;52.178;4.500;2023-02-01T00:09:55;47.18;44.44;50.64;;
66463;Laerm;56827;52.178;4.500;2023-02-01T00:10:06;50.38;44.74;54.53;;
66463;Laerm;56827;52.178;4.500;2023-02-01T00:10:17;46.57;43.97;51.13;;
66463;Laerm;56827;52.178;4.500;2023-02-01T00:10:27;42.23;39.50;44.57;;
66463;Laerm;56827;52.178;4.500;2023-02-01T00:10:37;38.29;35.44;41.05;;
66463;Laerm;56827;52.178;4.500;2023-02-01T00:10:48;36.54;34.51;38.14;;
66463;Laerm;56827;52.178;4.500;2023-02-01T00:10:59;39.30;36.36;42.62;;
66463;Laerm;56827;52.178;4.500;2023-02-01T00:11:10;43.29;40.94;48.24;;
66463;Laerm;56827;52.178;4.500;2023-02-01T00:11:21;45.86;41.55;49.22;;
66463;Laerm;56827;52.178;4.500;2023-02-01T00:11:31;43.20;39.43;48.36;;
66463;Laerm;56827;52.178;4.500;2023-02-01T00:11:42;40.60;37.90;43.23;;
66463;Laerm;56827;52.178;4.500;2023-02-01T00:11:52;47.47;41.50;49.56;;
66463;Laerm;56827;52.178;4.500;2023-02-01T00:12:02;43.92;40.62;48.55;;
66463;Laerm;56827;52.178;4.500;2023-02-01T00:12:13;47.86;45.17;51.57;;
66463;Laerm;56827;52.178;4.500;2023-02-01T00:12:23;47.31;43.40;50.39;;
66463;Laerm;56827;52.178;4.500;2023-02-01T00:12:34;52.43;46.41;57.43;;
66463;Laerm;56827;52.178;4.500;2023-02-01T00:12:44;50.84;45.54;56.37;;
66463;Laerm;56827;52.178;4.500;2023-02-01T00:12:54;44.58;41.00;49.62;;
66463;Laerm;56827;52.178;4.500;2023-02-01T00:13:04;42.34;38.53;51.15;;
66463;Laerm;56827;52.178;4.500;2023-02-01T00:13:14;46.10;42.57;48.92;;
66463;Laerm;56827;52.178;4.500;2023-02-01T00:13:25;42.84;38.17;47.67;;
66463;Laerm;56827;52.178;4.500;2023-02-01T00:13:38;37.22;34.62;41.05;;
66463;Laerm;56827;52.178;4.500;2023-02-01T00:13:49;48.04;35.70;53.27;;
66463;Laerm;56827;52.178;4.500;2023-02-01T00:13:59;46.29;42.54;48.98;;
66463;Laerm;56827;52.178;4.500;2023-02-01T00:14:09;40.13;35.79;46.10;;
66463;Laerm;56827;52.178;4.500;2023-02-01T00:14:20;35.32;32.83;38.34;;
66463;Laerm;56827;52.178;4.500;2023-02-01T00:14:30;36.36;33.97;39.47;;
66463;Laerm;56827;52.178;4.500;2023-02-01T00:14:42;41.01;37.45;47.46;;
66463;Laerm;56827;52.178;4.500;2023-02-01T00:14:52;45.48;39.87;53.30;;
66463;Laerm;56827;52.178;4.500;2023-02-01T00:15:02;41.32;37.28;53.84;;
66463;Laerm;56827;52.178;4.500;2023-02-01T00:15:13;42.27;40.10;45.55;;
66463;Laerm;56827;52.178;4.500;2023-02-01T00:15:23;41.53;38.98;44.19;;
66463;Laerm;56827;52.178;4.500;2023-02-01T00:15:33;41.11;38.28;45.05;;
66463;Laerm;56827;52.178;4.500;2023-02-01T00:15:43;42.94;37.97;46.59;;
66463;Laerm;56827;52.178;4.500;2023-02-01T00:15:54;38.70;35.46;43.45;;
66463;Laerm;56827;52.178;4.500;2023-02-01T00:16:11;38.05;35.02;42.84;;
66463;Laerm;56827;52.178;4.500;2023-02-01T00:16:23;37.96;35.27;41.46;;
66463;Laerm;56827;52.178;4.500;2023-02-01T00:16:33;41.24;38.39;44.08;;
66463;Laerm;56827;52.178;4.500;2023-02-01T00:16:44;43.17;38.70;46.60;;
66463;Laerm;56827;52.178;4.500;2023-02-01T00:16:54;39.45;36.60;43.24;;
66463;Laerm;56827;52.178;4.500;2023-02-01T00:17:07;38.65;36.81;40.48;;
66463;Laerm;56827;52.178;4.500;2023-02-01T00:17:17;42.35;38.62;44.57;;
66463;Laerm;56827;52.178;4.500;2023-02-01T00:17:28;41.21;38.82;43.69;;
66463;Laerm;56827;52.178;4.500;2023-02-01T00:17:38;43.09;39.01;46.31;;
66463;Laerm;56827;52.178;4.500;2023-02-01T00:17:52;39.85;36.53;42.68;;
66463;Laerm;56827;52.178;4.500;2023-02-01T00:18:02;38.11;36.03;40.36;;
66463;Laerm;56827;52.178;4.500;2023-02-01T00:18:13;42.34;37.32;47.72;;
66463;Laerm;56827;52.178;4.500;2023-02-01T00:18:23;47.54;43.70;50.28;;
66463;Laerm;56827;52.178;4.500;2023-02-01T00:18:33;46.03;43.50;48.80;;
66463;Laerm;56827;52.178;4.500;2023-02-01T00:18:44;43.45;40.81;48.27;;
66463;Laerm;56827;52.178;4.500;2023-02-01T00:19:00;45.05;40.14;49.91;;
66463;Laerm;56827;52.178;4.500;2023-02-01T00:19:13;42.52;35.45;48.67;;
66463;Laerm;56827;52.178;4.500;2023-02-01T00:19:23;40.55;36.30;44.70;;
66463;Laerm;56827;52.178;4.500;2023-02-01T00:19:34;38.68;35.51;40.65;;
66463;Laerm;56827;52.178;4.500;2023-02-01T00:19:44;37.32;35.78;39.14;;
66463;Laerm;56827;52.178;4.500;2023-02-01T00:19:54;36.04;34.02;38.67;;
66463;Laerm;56827;52.178;4.500;2023-02-01T00:20:05;37.73;35.17;40.57;;
66463;Laerm;56827;52.178;4.500;2023-02-01T00:20:15;34.86;33.02;36.86;;
66463;Laerm;56827;52.178;4.500;2023-02-01T00:20:25;41.19;33.87;48.98;;
66463;Laerm;56827;52.178;4.500;2023-02-01T00:20:36;51.11;46.64;54.37;;
66463;Laerm;56827;52.178;4.500;2023-02-01T00:20:46;48.38;42.39;52.78;;
66463;Laerm;56827;52.178;4.500;2023-02-01T00:20:57;50.35;41.73;53.93;;
66463;Laerm;56827;52.178;4.500;2023-02-01T00:21:07;45.45;38.48;49.70;;
66463;Laerm;56827;52.178;4.500;2023-02-01T00:21:18;38.20;35.75;41.85;;
66463;Laerm;56827;52.178;4.500;2023-02-01T00:21:29;41.00;38.68;45.76;;
66463;Laerm;56827;52.178;4.500;2023-02-01T00:21:40;42.86;35.64;48.12;;
66463;Laerm;56827;52.178;4.500;2023-02-01T00:21:50;38.69;34.66;44.18;;
66463;Laerm;56827;52.178;4.500;2023-02-01T00:22:01;36.76;34.23;39.12;;
66463;Laerm;56827;52.178;4.500;2023-02-01T00:22:11;39.34;36.33;43.68;;
66463;Laerm;56827;52.178;4.500;2023-02-01T00:22:21;39.21;36.37;42.99;;
66463;Laerm;56827;52.178;4.500;2023-02-01T00:22:31;37.74;35.14;48.30;;
66463;Laerm;56827;52.178;4.500;2023-02-01T00:22:41;47.29;35.25;59.28;;
66463;Laerm;56827;52.178;4.500;2023-02-01T00:22:52;43.97;33.66;57.67;;
66463;Laerm;56827;52.178;4.500;2023-02-01T00:23:02;34.79;33.10;37.67;;
66463;Laerm;56827;52.178;4.500;2023-02-01T00:23:12;35.45;32.58;38.25;;
66463;Laerm;56827;52.178;4.500;2023-02-01T00:23:22;35.51;33.72;36.99;;
66463;Laerm;56827;52.178;4.500;2023-02-01T00:23:33;35.42;32.25;37.91;;
66463;Laerm;56827;52.178;4.500;2023-02-01T00:23:44;36.01;33.46;42.12;;
66463;Laerm;56827;52.178;4.500;2023-02-01T00:23:55;40.40;34.92;44.21;;
66463;Laerm;56827;52.178;4.500;2023-02-01T00:24:05;38.92;35.70;44.04;;
66463;Laerm;56827;52.178;4.500;2023-02-01T00:24:15;39.76;36.73;44.05;;
66463;Laerm;56827;52.178;4.500;2023-02-01T00:24:26;37.20;35.03;39.46;;
66463;Laerm;56827;52.178;4.500;2023-02-01T00:24:36;46.62;34.26;52.08;;
66463;Laerm;56827;52.178;4.500;2023-02-01T00:24:46;45.46;40.34;51.71;;
66463;Laerm;56827;52.178;4.500;2023-02-01T00:24:56;39.61;34.74;43.39;;
66463;Laerm;56827;52.178;4.500;2023-02-01T00:25:07;37.42;35.29;39.92;;
66463;Laerm;56827;52.178;4.500;2023-02-01T00:25:17;35.95;34.17;38.00;;
66463;Laerm;56827;52.178;4.500;2023-02-01T00:25:27;41.30;35.77;44.57;;
66463;Laerm;56827;52.178;4.500;2023-02-01T00:25:37;39.52;36.76;42.36;;
66463;Laerm;56827;52.178;4.500;2023-02-01T00:25:48;39.24;35.73;42.79;;
66463;Laerm;56827;52.178;4.500;2023-02-01T00:26:00;40.89;38.53;42.37;;
66463;Laerm;56827;52.178;4.500;2023-02-01T00:26:12;42.03;38.24;47.72;;
66463;Laerm;56827;52.178;4.500;2023-02-01T00:26:30;46.07;43.69;48.61;;
66463;Laerm;56827;52.178;4.500;2023-02-01T00:26:42;48.44;45.84;50.98;;
66463;Laerm;56827;52.178;4.500;2023-02-01T00:26:53;43.47;39.58;46.90;;
66463;Laerm;56827;52.178;4.500;2023-02-01T00:27:03;49.71;39.59;53.82;;
66463;Laerm;56827;52.178;4.500;2023-02-01T00:27:13;52.17;49.29;56.31;;
66463;Laerm;56827;52.178;4.500;2023-02-01T00:27:27;47.95;41.02;52.54;;
66463;Laerm;56827;52.178;4.500;2023-02-01T00:27:37;41.34;37.79;44.05;;
66463;Laerm;56827;52.178;4.500;2023-02-01T00:27:48;40.41;37.22;51.36;;
66463;Laerm;56827;52.178;4.500;2023-02-01T00:27:58;42.28;36.57;47.49;;
66463;Laerm;56827;52.178;4.500;2023-02-01T00:28:09;39.25;37.30;47.44;;
66463;Laerm;56827;52.178;4.500;2023-02-01T00:28:19;40.52;36.87;44.11;;
66463;Laerm;56827;52.178;4.500;2023-02-01T00:28:29;40.87;37.18;45.02;;
66463;Laerm;56827;52.178;4.500;2023-02-01T00:28:40;43.09;38.66;45.59;;
66463;Laerm;56827;52.178;4.500;2023-02-01T00:28:50;43.83;37.44;47.72;;
66463;Laerm;56827;52.178;4.500;2023-02-01T00:29:01;52.73;45.64;55.40;;
66463;Laerm;56827;52.178;4.500;2023-02-01T00:29:13;53.35;49.38;56.03;;
66463;Laerm;56827;52.178;4.500;2023-02-01T00:29:24;51.11;47.84;55.17;;
66463;Laerm;56827;52.178;4.500;2023-02-01T00:29:34;50.41;47.75;53.11;;
66463;Laerm;56827;52.178;4.500;2023-02-01T00:29:44;49.84;44.53;54.41;;
66463;Laerm;56827;52.178;4.500;2023-02-01T00:29:55;45.79;42.33;49.50;;
66463;Laerm;56827;52.178;4.500;2023-02-01T00:30:05;41.40;38.14;49.28;;
66463;Laerm;56827;52.178;4.500;2023-02-01T00:30:16;44.67;41.36;47.25;;
66463;Laerm;56827;52.178;4.500;2023-02-01T00:30:27;44.25;41.74;46.86;;
66463;Laerm;56827;52.178;4.500;2023-02-01T00:30:37;40.95;38.64;44.48;;
66463;Laerm;56827;52.178;4.500;2023-02-01T00:30:55;38.26;36.08;41.37;;
66463;Laerm;56827;52.178;4.500;2023-02-01T00:31:05;38.40;35.39;42.41;;
66463;Laerm;56827;52.178;4.500;2023-02-01T00:31:15;40.33;35.60;43.30;;
66463;Laerm;56827;52.178;4.500;2023-02-01T00:31:26;36.90;34.47;40.06;;
66463;Laerm;56827;52.178;4.500;2023-02-01T00:31:36;42.26;38.93;45.00;;
66463;Laerm;56827;52.178;4.500;2023-02-01T00:31:49;48.02;42.69;51.15;;
66463;Laerm;56827;52.178;4.500;2023-02-01T00:31:59;50.73;47.32;53.37;;
66463;Laerm;56827;52.178;4.500;2023-02-01T00:32:09;44.30;40.65;49.15;;
66463;Laerm;56827;52.178;4.500;2023-02-01T00:32:20;45.60;43.19;47.99;;
66463;Laerm;56827;52.178;4.500;2023-02-01T00:32:30;47.55;44.01;51.26;;
66463;Laerm;56827;52.178;4.500;2023-02-01T00:32:41;45.96;42.43;49.65;;
66463;Laerm;56827;52.178;4.500;2023-02-01T00:32:52;40.63;36.87;44.21;;
66463;Laerm;56827;52.178;4.500;2023-02-01T00:33:02;38.20;35.61;40.20;;
66463;Laerm;56827;52.178;4.500;2023-02-01T00:33:12;42.84;37.49;45.74;;
66463;Laerm;56827;52.178;4.500;2023-02-01T00:33:22;44.82;40.87;48.05;;
66463;Laerm;56827;52.178;4.500;2023-02-01T00:33:33;43.47;40.13;46.02;;
66463;Laerm;56827;52.178;4.500;2023-02-01T00:33:46;49.13;41.08;54.16;;
66463;Laerm;56827;52.178;4.500;2023-02-01T00:33:56;45.78;40.09;50.41;;
66463;Laerm;56827;52.178;4.500;2023-02-01T00:34:06;43.88;37.01;50.50;;
66463;Laerm;56827;52.178;4.500;2023-02-01T00:34:16;43.39;36.56;50.33;;
66463;Laerm;56827;52.178;4.500;2023-02-01T00:34:27;43.37;38.43;49.01;;
66463;Laerm;56827;52.178;4.500;2023-02-01T00:34:37;40.47;37.71;42.73;;
66463;Laerm;56827;52.178;4.500;2023-02-01T00:34:47;38.79;35.08;41.71;;
66463;Laerm;56827;52.178;4.500;2023-02-01T00:34:58;36.90;34.83;39.05;;
66463;Laerm;56827;52.178;4.500;2023-02-01T00:35:08;37.82;34.53;42.60;;
66463;Laerm;56827;52.178;4.500;2023-02-01T00:35:18;39.04;36.45;42.28;;
66463;Laerm;56827;52.178;4.500;2023-02-01T00:35:28;42.70;38.91;45.84;;
66463;Laerm;56827;52.178;4.500;2023-02-01T00:35:39;39.42;36.96;41.97;;
66463;Laerm;56827;52.178;4.500;2023-02-01T00:35:49;41.53;36.65;45.51;;
66463;Laerm;56827;52.178;4.500;2023-02-01T00:36:00;41.18;38.36;43.37;;
66463;Laerm;56827;52.178;4.500;2023-02-01T00:36:11;50.35;40.76;53.91;;
66463;Laerm;56827;52.178;4.500;2023-02-01T00:36:21;51.76;48.76;55.51;;
66463;Laerm;56827;52.178;4.500;2023-02-01T00:36:31;50.09;45.59;54.23;;
66463;Laerm;56827;52.178;4.500;2023-02-01T00:36:42;43.65;39.24;47.44;;
66463;Laerm;56827;52.178;4.500;2023-02-01T00:36:53;38.66;36.39;41.22;;
66463;Laerm;56827;52.178;4.500;2023-02-01T00:37:03;37.71;35.76;40.81;;
66463;Laerm;56827;52.178;4.500;2023-02-01T00:37:13;42.10;39.88;44.06;;
66463;Laerm;56827;52.178;4.500;2023-02-01T00:37:23;40.94;38.99;42.79;;
66463;Laerm;56827;52.178;4.500;2023-02-01T00:37:34;41.14;39.44;42.69;;
66463;Laerm;56827;52.178;4.500;2023-02-01T00:37:44;40.75;38.59;44.16;;
66463;Laerm;56827;52.178;4.500;2023-02-01T00:37:54;43.06;38.28;50.18;;
66463;Laerm;56827;52.178;4.500;2023-02-01T00:38:04;48.58;43.24;52.88;;
66463;Laerm;56827;52.178;4.500;2023-02-01T00:38:14;45.96;41.74;52.16;;
66463;Laerm;56827;52.178;4.500;2023-02-01T00:38:28;45.06;42.28;48.84;;
66463;Laerm;56827;52.178;4.500;2023-02-01T00:38:38;41.06;37.06;48.04;;
66463;Laerm;56827;52.178;4.500;2023-02-01T00:38:49;37.08;35.33;39.26;;
66463;Laerm;56827;52.178;4.500;2023-02-01T00:38:59;39.60;36.92;42.68;;
66463;Laerm;56827;52.178;4.500;2023-02-01T00:39:09;41.05;37.09;49.04;;
66463;Laerm;56827;52.178;4.500;2023-02-01T00:39:20;36.62;34.05;40.15;;
66463;Laerm;56827;52.178;4.500;2023-02-01T00:39:30;35.19;33.18;37.83;;
66463;Laerm;56827;52.178;4.500;2023-02-01T00:39:40;37.29;35.21;39.12;;
66463;Laerm;56827;52.178;4.500;2023-02-01T00:39:50;37.64;35.46;44.60;;
66463;Laerm;56827;52.178;4.500;2023-02-01T00:40:01;37.70;35.53;42.96;;
66463;Laerm;56827;52.178;4.500;2023-02-01T00:40:11;38.43;35.76;43.04;;
66463;Laerm;56827;52.178;4.500;2023-02-01T00:40:21;38.06;35.43;41.74;;
66463;Laerm;56827;52.178;4.500;2023-02-01T00:40:31;43.22;40.64;45.36;;
66463;Laerm;56827;52.178;4.500;2023-02-01T00:40:42;40.73;36.67;44.40;;
66463;Laerm;56827;52.178;4.500;2023-02-01T00:40:52;41.41;36.67;46.98;;
66463;Laerm;56827;52.178;4.500;2023-02-01T00:41:12;47.46;43.79;50.70;;
66463;Laerm;56827;52.178;4.500;2023-02-01T00:41:22;44.33;38.51;50.16;;
66463;Laerm;56827;52.178;4.500;2023-02-01T00:41:33;43.19;40.49;45.28;;
66463;Laerm;56827;52.178;4.500;2023-02-01T00:41:43;44.49;40.67;47.94;;
66463;Laerm;56827;52.178;4.500;2023-02-01T00:41:53;47.06;42.14;50.83;;
66463;Laerm;56827;52.178;4.500;2023-02-01T00:42:04;50.92;46.40;64.52;;
66463;Laerm;56827;52.178;4.500;2023-02-01T00:42:14;44.03;38.12;49.47;;
66463;Laerm;56827;52.178;4.500;2023-02-01T00:42:25;38.53;35.94;41.01;;
66463;Laerm;56827;52.178;4.500;2023-02-01T00:42:35;41.69;39.15;44.07;;
66463;Laerm;56827;52.178;4.500;2023-02-01T00:42:45;41.74;37.82;44.68;;
66463;Laerm;56827;52.178;4.500;2023-02-01T00:42:55;41.44;37.54;45.91;;
66463;Laerm;56827;52.178;4.500;2023-02-01T00:43:07;36.76;34.10;40.42;;
66463;Laerm;56827;52.178;4.500;2023-02-01T00:43:17;40.59;34.24;48.58;;
66463;Laerm;56827;52.178;4.500;2023-02-01T00:43:28;41.64;37.39;45.31;;
66463;Laerm;56827;52.178;4.500;2023-02-01T00:43:38;40.96;38.59;43.69;;
66463;Laerm;56827;52.178;4.500;2023-02-01T00:43:49;42.64;39.26;50.85;;
66463;Laerm;56827;52.178;4.500;2023-02-01T00:43:59;48.11;44.12;52.25;;
66463;Laerm;56827;52.178;4.500;2023-02-01T00:44:11;53.17;47.91;56.92;;
66463;Laerm;56827;52.178;4.500;2023-02-01T00:44:21;45.39;42.36;51.34;;
66463;Laerm;56827;52.178;4.500;2023-02-01T00:44:31;40.77;37.48;44.85;;
66463;Laerm;56827;52.178;4.500;2023-02-01T00:44:44;43.88;38.33;46.78;;
66463;Laerm;56827;52.178;4.500;2023-02-01T00:44:54;42.66;37.11;46.74;;
66463;Laerm;56827;52.178;4.500;2023-02-01T00:45:04;40.24;36.98;43.86;;
66463;Laerm;56827;52.178;4.500;2023-02-01T00:45:15;37.48;33.99;41.34;;
66463;Laerm;56827;52.178;4.500;2023-02-01T00:45:25;35.39;33.61;37.12;;
66463;Laerm;56827;52.178;4.500;2023-02-01T00:45:36;36.23;33.96;43.90;;
66463;Laerm;56827;52.178;4.500;2023-02-01T00:45:46;42.67;38.42;46.94;;
66463;Laerm;56827;52.178;4.500;2023-02-01T00:45:56;41.02;37.77;46.16;;
66463;Laerm;56827;52.178;4.500;2023-02-01T00:46:07;41.98;37.65;45.23;;
66463;Laerm;56827;52.178;4.500;2023-02-01T00:46:17;42.41;39.38;45.03;;
66463;Laerm;56827;52.178;4.500;2023-02-01T00:46:28;41.38;37.61;44.61;;
66463;Laerm;56827;52.178;4.500;2023-02-01T00:46:38;39.14;37.47;40.86;;
66463;Laerm;56827;52.178;4.500;2023-02-01T00:46:48;39.91;37.07;42.52;;
66463;Laerm;56827;52.178;4.500;2023-02-01T00:46:59;43.98;38.92;51.54;;
66463;Laerm;56827;52.178;4.500;2023-02-01T00:47:09;47.23;41.19;53.62;;
66463;Laerm;56827;52.178;4.500;2023-02-01T00:47:20;43.60;39.94;46.02;;
66463;Laerm;56827;52.178;4.500;2023-02-01T00:47:30;40.82;37.48;43.60;;
66463;Laerm;56827;52.178;4.500;2023-02-01T00:47:40;39.45;37.43;44.07;;
66463;Laerm;56827;52.178;4.500;2023-02-01T00:47:50;39.40;36.49;41.28;;
66463;Laerm;56827;52.178;4.500;2023-02-01T00:48:01;40.04;36.46;43.70;;
66463;Laerm;56827;52.178;4.500;2023-02-01T00:48:11;40.64;37.98;43.18;;
66463;Laerm;56827;52.178;4.500;2023-02-01T00:48:21;44.65;40.13;48.80;;
66463;Laerm;56827;52.178;4.500;2023-02-01T00:48:31;42.69;40.25;45.81;;
66463;Laerm;56827;52.178;4.500;2023-02-01T00:48:42;42.83;38.93;45.83;;
66463;Laerm;56827;52.178;4.500;2023-02-01T00:48:53;43.14;39.43;46.08;;
66463;Laerm;56827;52.178;4.500;2023-02-01T00:49:03;44.95;42.23;46.78;;
66463;Laerm;56827;52.178;4.500;2023-02-01T00:49:13;42.66;40.92;44.66;;
66463;Laerm;56827;52.178;4.500;2023-02-01T00:49:24;39.83;33.78;48.50;;
66463;Laerm;56827;52.178;4.500;2023-02-01T00:49:34;36.11;34.07;37.93;;
66463;Laerm;56827;52.178;4.500;2023-02-01T00:49:44;38.96;35.31;41.66;;
66463;Laerm;56827;52.178;4.500;2023-02-01T00:49:54;36.79;34.59;41.99;;
66463;Laerm;56827;52.178;4.500;2023-02-01T00:50:05;37.15;35.49;38.99;;
66463;Laerm;56827;52.178;4.500;2023-02-01T00:50:15;36.07;34.18;39.44;;
66463;Laerm;56827;52.178;4.500;2023-02-01T00:50:25;37.51;34.85;39.97;;
66463;Laerm;56827;52.178;4.500;2023-02-01T00:50:36;40.82;35.13;44.98;;
66463;Laerm;56827;52.178;4.500;2023-02-01T00:50:50;41.22;36.29;44.98;;
66463;Laerm;56827;52.178;4.500;2023-02-01T00:51:01;40.74;37.32;44.53;;
66463;Laerm;56827;52.178;4.500;2023-02-01T00:51:13;42.92;39.28;46.15;;
66463;Laerm;56827;52.178;4.500;2023-02-01T00:51:25;42.52;40.38;45.07;;
66463;Laerm;56827;52.178;4.500;2023-02-01T00:51:36;41.05;37.62;44.59;;
66463;Laerm;56827;52.178;4.500;2023-02-01T00:51:46;39.48;35.80;42.69;;
66463;Laerm;56827;52.178;4.500;2023-02-01T00:51:56;37.12;34.42;40.73;;
66463;Laerm;56827;52.178;4.500;2023-02-01T00:52:06;39.74;36.50;42.10;;
66463;Laerm;56827;52.178;4.500;2023-02-01T00:52:17;40.44;38.62;42.57;;
66463;Laerm;56827;52.178;4.500;2023-02-01T00:52:27;39.71;37.43;42.16;;
66463;Laerm;56827;52.178;4.500;2023-02-01T00:52:37;41.70;37.22;44.18;;
66463;Laerm;56827;52.178;4.500;2023-02-01T00:52:47;40.41;37.28;43.42;;
66463;Laerm;56827;52.178;4.500;2023-02-01T00:52:57;42.34;38.21;45.59;;
66463;Laerm;56827;52.178;4.500;2023-02-01T00:53:08;42.29;37.76;47.11;;
66463;Laerm;56827;52.178;4.500;2023-02-01T00:53:19;42.26;37.56;46.21;;
66463;Laerm;56827;52.178;4.500;2023-02-01T00:53:29;37.90;34.98;40.96;;
66463;Laerm;56827;52.178;4.500;2023-02-01T00:53:40;36.66;34.58;38.27;;
66463;Laerm;56827;52.178;4.500;2023-02-01T00:53:50;37.38;34.59;42.03;;
66463;Laerm;56827;52.178;4.500;2023-02-01T00:54:00;42.68;37.52;47.98;;
66463;Laerm;56827;52.178;4.500;2023-02-01T00:54:11;47.11;44.16;49.71;;
66463;Laerm;56827;52.178;4.500;2023-02-01T00:54:21;42.72;37.77;46.43;;
66463;Laerm;56827;52.178;4.500;2023-02-01T00:54:32;38.24;35.64;41.24;;
66463;Laerm;56827;52.178;4.500;2023-02-01T00:54:42;38.47;35.52;40.07;;
66463;Laerm;56827;52.178;4.500;2023-02-01T00:54:53;42.60;37.91;45.93;;
66463;Laerm;56827;52.178;4.500;2023-02-01T00:55:03;43.93;41.30;46.49;;
66463;Laerm;56827;52.178;4.500;2023-02-01T00:55:13;44.75;41.06;50.27;;
66463;Laerm;56827;52.178;4.500;2023-02-01T00:55:23;43.94;37.28;49.23;;
66463;Laerm;56827;52.178;4.500;2023-02-01T00:55:34;43.13;37.80;50.30;;
66463;Laerm;56827;52.178;4.500;2023-02-01T00:55:45;48.60;44.66;51.68;;
66463;Laerm;56827;52.178;4.500;2023-02-01T00:55:55;46.74;41.80;50.03;;
66463;Laerm;56827;52.178;4.500;2023-02-01T00:56:06;41.79;39.03;45.21;;
66463;Laerm;56827;52.178;4.500;2023-02-01T00:56:17;40.00;37.14;43.69;;
66463;Laerm;56827;52.178;4.500;2023-02-01T00:56:27;42.86;40.93;44.94;;
66463;Laerm;56827;52.178;4.500;2023-02-01T00:56:38;40.44;36.62;44.33;;
66463;Laerm;56827;52.178;4.500;2023-02-01T00:56:48;38.04;35.44;42.38;;
66463;Laerm;56827;52.178;4.500;2023-02-01T00:56:58;43.68;38.34;47.16;;
66463;Laerm;56827;52.178;4.500;2023-02-01T00:57:08;41.19;39.37;43.50;;
66463;Laerm;56827;52.178;4.500;2023-02-01T00:57:19;41.18;38.64;46.17;;
66463;Laerm;56827;52.178;4.500;2023-02-01T00:57:29;40.73;35.37;45.84;;
66463;Laerm;56827;52.178;4.500;2023-02-01T00:57:39;42.23;39.49;44.80;;
66463;Laerm;56827;52.178;4.500;2023-02-01T00:57:49;39.14;37.31;43.20;;
66463;Laerm;56827;52.178;4.500;2023-02-01T00:57:59;44.11;38.16;47.26;;
66463;Laerm;56827;52.178;4.500;2023-02-01T00:58:10;44.96;41.35;48.14;;
66463;Laerm;56827;52.178;4.500;2023-02-01T00:58:20;44.60;41.23;47.57;;
66463;Laerm;56827;52.178;4.500;2023-02-01T00:58:30;43.97;41.27;45.92;;
66463;Laerm;56827;52.178;4.500;2023-02-01T00:58:41;41.43;38.47;43.93;;
66463;Laerm;56827;52.178;4.500;2023-02-01T00:58:51;38.92;37.01;41.33;;
66463;Laerm;56827;52.178;4.500;2023-02-01T00:59:01;38.30;36.06;40.27;;
66463;Laerm;56827;52.178;4.500;2023-02-01T00:59:11;41.92;38.16;44.90;;
66463;Laerm;56827;52.178;4.500;2023-02-01T00:59:22;42.08;39.23;45.05;;
66463;Laerm;56827;52.178;4.500;2023-02-01T00:59:32;39.82;36.55;42.63;;
66463;Laerm;56827;52.178;4.500;2023-02-01T00:59:42;45.21;40.83;49.90;;